Aviation Digital Data Service (ADDS)

Output produced by METARs form (2350 UTC 18 August 2019)
found at http://www.aviationweather.gov/metar/data/
 
Forecast for: LEAB (ALBACETE (CIV/MI, ES)
Text: TAF LEAB 182300Z 1900/1909 VRB05KT CAVOK
Forecast period: 0000 to 0900 UTC 19 August 2019
Forecast type: FROM: standard forecast or significant change
Winds: variable direction winds at 6 MPH (5 knots; 2.6 m/s)
Visibility: 6 or more miles 10+ km)
Ceiling: unknown
Clouds: missing
Weather: NSW  (no significant weather)